sensor_id;sensor_type;location;lat;lon;timestamp;temperature;humidity
4453;DHT22;2239;48.152;11.584;2022-11-15T00:00:06;6.10;99.90
4453;DHT22;2239;48.152;11.584;2022-11-15T00:02:32;6.00;99.90
4453;DHT22;2239;48.152;11.584;2022-11-15T00:04:57;6.00;99.90
4453;DHT22;2239;48.152;11.584;2022-11-15T00:07:23;6.00;99.90
4453;DHT22;2239;48.152;11.584;2022-11-15T00:09:48;6.10;99.90
4453;DHT22;2239;48.152;11.584;2022-11-15T00:12:14;6.10;99.90
4453;DHT22;2239;48.152;11.584;2022-11-15T00:14:39;6.00;99.90
4453;DHT22;2239;48.152;11.584;2022-11-15T00:17:05;6.00;99.90
4453;DHT22;2239;48.152;11.584;2022-11-15T00:19:30;6.00;99.90
4453;DHT22;2239;48.152;11.584;2022-11-15T00:21:56;5.90;99.90
4453;DHT22;2239;48.152;11.584;2022-11-15T00:24:22;5.80;99.90
4453;DHT22;2239;48.152;11.584;2022-11-15T00:26:47;5.80;99.90
4453;DHT22;2239;48.152;11.584;2022-11-15T00:29:13;5.80;99.90
4453;DHT22;2239;48.152;11.584;2022-11-15T00:31:38;5.80;99.90
4453;DHT22;2239;48.152;11.584;2022-11-15T00:34:04;5.80;99.90
4453;DHT22;2239;48.152;11.584;2022-11-15T00:36:32;5.80;99.90
4453;DHT22;2239;48.152;11.584;2022-11-15T00:38:58;5.80;99.90
4453;DHT22;2239;48.152;11.584;2022-11-15T00:41:23;5.70;99.90
4453;DHT22;2239;48.152;11.584;2022-11-15T00:43:49;5.80;99.90
4453;DHT22;2239;48.152;11.584;2022-11-15T00:46:14;5.80;99.90
4453;DHT22;2239;48.152;11.584;2022-11-15T00:48:40;5.70;99.90
4453;DHT22;2239;48.152;11.584;2022-11-15T00:51:06;5.70;99.90
4453;DHT22;2239;48.152;11.584;2022-11-15T00:53:31;5.60;99.90
4453;DHT22;2239;48.152;11.584;2022-11-15T00:55:57;5.60;99.90
4453;DHT22;2239;48.152;11.584;2022-11-15T00:58:22;5.60;99.90
4453;DHT22;2239;48.152;11.584;2022-11-15T01:00:48;5.60;99.90
4453;DHT22;2239;48.152;11.584;2022-11-15T01:03:13;5.50;99.90
4453;DHT22;2239;48.152;11.584;2022-11-15T01:05:39;5.50;99.90
4453;DHT22;2239;48.152;11.584;2022-11-15T01:08:04;5.50;99.90
4453;DHT22;2239;48.152;11.584;2022-11-15T01:10:30;5.50;99.90
4453;DHT22;2239;48.152;11.584;2022-11-15T01:12:56;5.50;99.90
4453;DHT22;2239;48.152;11.584;2022-11-15T01:15:22;5.40;99.90
4453;DHT22;2239;48.152;11.584;2022-11-15T01:17:47;5.30;99.90
4453;DHT22;2239;48.152;11.584;2022-11-15T01:20:13;5.30;99.90
4453;DHT22;2239;48.152;11.584;2022-11-15T01:22:38;5.20;99.90
4453;DHT22;2239;48.152;11.584;2022-11-15T01:25:04;5.20;99.90
4453;DHT22;2239;48.152;11.584;2022-11-15T01:27:29;5.20;99.90
4453;DHT22;2239;48.152;11.584;2022-11-15T01:29:55;5.10;99.90
4453;DHT22;2239;48.152;11.584;2022-11-15T01:32:20;5.00;99.90
4453;DHT22;2239;48.152;11.584;2022-11-15T01:34:46;5.00;99.90
4453;DHT22;2239;48.152;11.584;2022-11-15T01:37:12;5.00;99.90
4453;DHT22;2239;48.152;11.584;2022-11-15T01:39:37;5.00;99.90
4453;DHT22;2239;48.152;11.584;2022-11-15T01:42:03;5.00;99.90
4453;DHT22;2239;48.152;11.584;2022-11-15T01:47:03;5.00;99.90
4453;DHT22;2239;48.152;11.584;2022-11-15T01:49:33;5.00;99.90
4453;DHT22;2239;48.152;11.584;2022-11-15T01:52:02;5.00;99.90
4453;DHT22;2239;48.152;11.584;2022-11-15T01:54:28;5.00;99.90
4453;DHT22;2239;48.152;11.584;2022-11-15T01:57:01;5.00;99.90
4453;DHT22;2239;48.152;11.584;2022-11-15T01:59:29;5.00;99.90
4453;DHT22;2239;48.152;11.584;2022-11-15T02:01:55;5.00;99.90
4453;DHT22;2239;48.152;11.584;2022-11-15T02:04:29;5.00;99.90
4453;DHT22;2239;48.152;11.584;2022-11-15T02:06:56;5.00;99.90
4453;DHT22;2239;48.152;11.584;2022-11-15T02:09:22;5.10;99.90
4453;DHT22;2239;48.152;11.584;2022-11-15T02:11:48;5.10;99.90
4453;DHT22;2239;48.152;11.584;2022-11-15T02:14:17;5.10;99.90
4453;DHT22;2239;48.152;11.584;2022-11-15T02:19:40;5.20;99.90
4453;DHT22;2239;48.152;11.584;2022-11-15T02:25:31;5.20;99.90
4453;DHT22;2239;48.152;11.584;2022-11-15T02:42:18;5.00;99.90
4453;DHT22;2239;48.152;11.584;2022-11-15T02:45:05;5.10;99.90
4453;DHT22;2239;48.152;11.584;2022-11-15T02:47:35;5.10;99.90
4453;DHT22;2239;48.152;11.584;2022-11-15T02:50:12;5.10;99.90
4453;DHT22;2239;48.152;11.584;2022-11-15T02:52:39;5.10;99.90
4453;DHT22;2239;48.152;11.584;2022-11-15T02:55:24;5.00;99.90
4453;DHT22;2239;48.152;11.584;2022-11-15T03:00:54;4.90;99.90
4453;DHT22;2239;48.152;11.584;2022-11-15T03:03:42;4.90;99.90
4453;DHT22;2239;48.152;11.584;2022-11-15T03:11:18;4.80;99.90
4453;DHT22;2239;48.152;11.584;2022-11-15T03:16:48;4.80;99.90
4453;DHT22;2239;48.152;11.584;2022-11-15T03:19:47;4.80;99.90
4453;DHT22;2239;48.152;11.584;2022-11-15T03:22:17;4.70;99.90
4453;DHT22;2239;48.152;11.584;2022-11-15T03:24:45;4.70;99.90
4453;DHT22;2239;48.152;11.584;2022-11-15T03:27:15;4.70;99.90
4453;DHT22;2239;48.152;11.584;2022-11-15T03:29:47;4.60;99.90
4453;DHT22;2239;48.152;11.584;2022-11-15T03:32:18;4.50;99.90
4453;DHT22;2239;48.152;11.584;2022-11-15T03:34:52;4.50;99.90
4453;DHT22;2239;48.152;11.584;2022-11-15T03:37:21;4.50;99.90
4453;DHT22;2239;48.152;11.584;2022-11-15T03:39:47;4.40;99.90
4453;DHT22;2239;48.152;11.584;2022-11-15T03:42:58;4.40;99.90
4453;DHT22;2239;48.152;11.584;2022-11-15T03:45:34;4.50;99.90
4453;DHT22;2239;48.152;11.584;2022-11-15T03:48:22;4.50;99.90
4453;DHT22;2239;48.152;11.584;2022-11-15T03:50:49;4.50;99.90
4453;DHT22;2239;48.152;11.584;2022-11-15T03:53:17;4.50;99.90
4453;DHT22;2239;48.152;11.584;2022-11-15T03:55:43;4.40;99.90
4453;DHT22;2239;48.152;11.584;2022-11-15T03:58:08;4.30;99.90
4453;DHT22;2239;48.152;11.584;2022-11-15T04:00:34;4.30;99.90
4453;DHT22;2239;48.152;11.584;2022-11-15T04:03:00;4.50;99.90
4453;DHT22;2239;48.152;11.584;2022-11-15T04:05:25;4.50;99.90
4453;DHT22;2239;48.152;11.584;2022-11-15T04:07:51;4.50;99.90
4453;DHT22;2239;48.152;11.584;2022-11-15T04:10:19;4.50;99.90
4453;DHT22;2239;48.152;11.584;2022-11-15T04:12:46;4.30;99.90
4453;DHT22;2239;48.152;11.584;2022-11-15T04:15:20;4.30;99.90
4453;DHT22;2239;48.152;11.584;2022-11-15T04:17:49;4.20;99.90
4453;DHT22;2239;48.152;11.584;2022-11-15T04:20:23;4.20;99.90
4453;DHT22;2239;48.152;11.584;2022-11-15T04:23:10;4.20;99.90
4453;DHT22;2239;48.152;11.584;2022-11-15T04:25:56;4.20;99.90
4453;DHT22;2239;48.152;11.584;2022-11-15T04:28:23;4.20;99.90
4453;DHT22;2239;48.152;11.584;2022-11-15T04:30:49;4.20;99.90
4453;DHT22;2239;48.152;11.584;2022-11-15T04:33:14;4.20;99.90
4453;DHT22;2239;48.152;11.584;2022-11-15T04:35:40;4.20;99.90
4453;DHT22;2239;48.152;11.584;2022-11-15T04:38:08;4.20;99.90
4453;DHT22;2239;48.152;11.584;2022-11-15T04:40:34;4.20;99.90
4453;DHT22;2239;48.152;11.584;2022-11-15T04:43:00;4.30;99.90
4453;DHT22;2239;48.152;11.584;2022-11-15T04:45:26;4.40;99.90
4453;DHT22;2239;48.152;11.584;2022-11-15T04:47:51;4.30;99.90
4453;DHT22;2239;48.152;11.584;2022-11-15T04:50:17;4.40;99.90
4453;DHT22;2239;48.152;11.584;2022-11-15T04:52:52;4.40;99.90
4453;DHT22;2239;48.152;11.584;2022-11-15T04:55:18;4.40;99.90
4453;DHT22;2239;48.152;11.584;2022-11-15T04:57:44;4.40;99.90
4453;DHT22;2239;48.152;11.584;2022-11-15T05:00:12;4.40;99.90
4453;DHT22;2239;48.152;11.584;2022-11-15T05:02:38;4.50;99.90
4453;DHT22;2239;48.152;11.584;2022-11-15T05:05:24;4.50;99.90
4453;DHT22;2239;48.152;11.584;2022-11-15T05:07:50;4.40;99.90
4453;DHT22;2239;48.152;11.584;2022-11-15T05:10:15;4.50;99.90
4453;DHT22;2239;48.152;11.584;2022-11-15T05:12:41;4.50;99.90
4453;DHT22;2239;48.152;11.584;2022-11-15T05:15:07;4.50;99.90
4453;DHT22;2239;48.152;11.584;2022-11-15T05:17:33;4.50;99.90
4453;DHT22;2239;48.152;11.584;2022-11-15T05:19:58;4.40;99.90
4453;DHT22;2239;48.152;11.584;2022-11-15T05:22:24;4.40;99.90
4453;DHT22;2239;48.152;11.584;2022-11-15T05:24:49;4.40;99.90
4453;DHT22;2239;48.152;11.584;2022-11-15T05:27:15;4.30;99.90
4453;DHT22;2239;48.152;11.584;2022-11-15T05:29:40;4.30;99.90
4453;DHT22;2239;48.152;11.584;2022-11-15T05:32:08;4.20;99.90
4453;DHT22;2239;48.152;11.584;2022-11-15T05:34:34;4.20;99.90
4453;DHT22;2239;48.152;11.584;2022-11-15T05:37:00;4.10;99.90
4453;DHT22;2239;48.152;11.584;2022-11-15T05:39:26;4.20;99.90
4453;DHT22;2239;48.152;11.584;2022-11-15T05:41:59;4.10;99.90
4453;DHT22;2239;48.152;11.584;2022-11-15T05:44:27;4.20;99.90
4453;DHT22;2239;48.152;11.584;2022-11-15T05:46:53;4.20;99.90
4453;DHT22;2239;48.152;11.584;2022-11-15T05:49:23;4.20;99.90
4453;DHT22;2239;48.152;11.584;2022-11-15T05:51:51;4.20;99.90
4453;DHT22;2239;48.152;11.584;2022-11-15T05:54:19;4.10;99.90
4453;DHT22;2239;48.152;11.584;2022-11-15T05:56:46;4.10;99.90
4453;DHT22;2239;48.152;11.584;2022-11-15T05:59:12;4.20;99.90
4453;DHT22;2239;48.152;11.584;2022-11-15T06:01:38;4.20;99.90
4453;DHT22;2239;48.152;11.584;2022-11-15T06:04:04;4.20;99.90
4453;DHT22;2239;48.152;11.584;2022-11-15T06:06:30;4.30;99.90
4453;DHT22;2239;48.152;11.584;2022-11-15T06:08:55;4.40;99.90
4453;DHT22;2239;48.152;11.584;2022-11-15T06:11:21;4.40;99.90
4453;DHT22;2239;48.152;11.584;2022-11-15T06:13:47;4.30;99.90
4453;DHT22;2239;48.152;11.584;2022-11-15T06:16:12;4.30;99.90
4453;DHT22;2239;48.152;11.584;2022-11-15T06:18:38;4.30;99.90
4453;DHT22;2239;48.152;11.584;2022-11-15T06:21:04;4.30;99.90
4453;DHT22;2239;48.152;11.584;2022-11-15T06:23:34;4.30;99.90
4453;DHT22;2239;48.152;11.584;2022-11-15T06:26:00;4.30;99.90
4453;DHT22;2239;48.152;11.584;2022-11-15T06:28:30;4.30;99.90
4453;DHT22;2239;48.152;11.584;2022-11-15T06:31:02;4.40;99.90
4453;DHT22;2239;48.152;11.584;2022-11-15T06:33:28;4.60;99.90
4453;DHT22;2239;48.152;11.584;2022-11-15T06:35:53;5.00;99.90
4453;DHT22;2239;48.152;11.584;2022-11-15T06:38:19;5.70;99.90
4453;DHT22;2239;48.152;11.584;2022-11-15T06:40:45;7.10;99.90
4453;DHT22;2239;48.152;11.584;2022-11-15T06:43:10;8.90;99.90
4453;DHT22;2239;48.152;11.584;2022-11-15T06:45:36;10.50;98.70
4453;DHT22;2239;48.152;11.584;2022-11-15T06:48:01;11.70;95.90
4453;DHT22;2239;48.152;11.584;2022-11-15T06:50:27;12.90;93.40
4453;DHT22;2239;48.152;11.584;2022-11-15T06:52:52;13.90;90.80
4453;DHT22;2239;48.152;11.584;2022-11-15T06:55:18;14.80;85.80
4453;DHT22;2239;48.152;11.584;2022-11-15T06:57:51;15.20;81.20
4453;DHT22;2239;48.152;11.584;2022-11-15T07:00:19;15.80;77.70
4453;DHT22;2239;48.152;11.584;2022-11-15T07:02:45;16.30;76.60
4453;DHT22;2239;48.152;11.584;2022-11-15T07:05:11;16.90;71.40
4453;DHT22;2239;48.152;11.584;2022-11-15T07:07:37;17.50;69.70
4453;DHT22;2239;48.152;11.584;2022-11-15T07:10:03;18.10;67.40
4453;DHT22;2239;48.152;11.584;2022-11-15T07:12:30;18.90;63.20
4453;DHT22;2239;48.152;11.584;2022-11-15T07:14:56;19.40;60.50
4453;DHT22;2239;48.152;11.584;2022-11-15T07:17:21;19.60;59.80
4453;DHT22;2239;48.152;11.584;2022-11-15T07:19:47;20.20;58.10
4453;DHT22;2239;48.152;11.584;2022-11-15T07:22:12;20.70;55.40
4453;DHT22;2239;48.152;11.584;2022-11-15T07:24:38;21.00;54.30
4453;DHT22;2239;48.152;11.584;2022-11-15T07:27:04;21.80;52.20
4453;DHT22;2239;48.152;11.584;2022-11-15T07:29:29;22.50;50.30
4453;DHT22;2239;48.152;11.584;2022-11-15T07:31:55;22.70;47.70
4453;DHT22;2239;48.152;11.584;2022-11-15T07:34:20;22.60;46.50
4453;DHT22;2239;48.152;11.584;2022-11-15T07:36:46;22.60;46.00
4453;DHT22;2239;48.152;11.584;2022-11-15T07:39:11;22.70;45.20
4453;DHT22;2239;48.152;11.584;2022-11-15T07:41:37;22.80;44.90
4453;DHT22;2239;48.152;11.584;2022-11-15T07:44:04;22.80;43.90
4453;DHT22;2239;48.152;11.584;2022-11-15T07:46:30;23.30;44.10
4453;DHT22;2239;48.152;11.584;2022-11-15T07:48:57;23.00;43.60
4453;DHT22;2239;48.152;11.584;2022-11-15T07:51:22;23.00;43.00
4453;DHT22;2239;48.152;11.584;2022-11-15T07:53:48;22.80;42.40
4453;DHT22;2239;48.152;11.584;2022-11-15T07:56:14;22.70;43.30
4453;DHT22;2239;48.152;11.584;2022-11-15T07:58:39;22.60;42.70
4453;DHT22;2239;48.152;11.584;2022-11-15T08:01:06;22.20;43.20
4453;DHT22;2239;48.152;11.584;2022-11-15T08:03:32;22.00;43.60
4453;DHT22;2239;48.152;11.584;2022-11-15T08:05:58;22.00;45.10
4453;DHT22;2239;48.152;11.584;2022-11-15T08:08:24;22.10;43.90
4453;DHT22;2239;48.152;11.584;2022-11-15T08:10:50;21.90;43.80
4453;DHT22;2239;48.152;11.584;2022-11-15T08:13:15;21.50;44.00
4453;DHT22;2239;48.152;11.584;2022-11-15T08:15:41;21.10;43.50
4453;DHT22;2239;48.152;11.584;2022-11-15T08:18:13;21.10;44.60
4453;DHT22;2239;48.152;11.584;2022-11-15T08:20:41;20.80;44.30
4453;DHT22;2239;48.152;11.584;2022-11-15T08:23:08;20.40;45.00
4453;DHT22;2239;48.152;11.584;2022-11-15T08:25:35;20.40;46.40
4453;DHT22;2239;48.152;11.584;2022-11-15T08:28:04;20.40;46.70
4453;DHT22;2239;48.152;11.584;2022-11-15T08:30:30;20.40;46.60
4453;DHT22;2239;48.152;11.584;2022-11-15T08:32:59;20.40;46.30
4453;DHT22;2239;48.152;11.584;2022-11-15T08:35:25;20.40;46.90
4453;DHT22;2239;48.152;11.584;2022-11-15T08:37:52;20.30;47.90
4453;DHT22;2239;48.152;11.584;2022-11-15T08:40:18;20.40;48.60
4453;DHT22;2239;48.152;11.584;2022-11-15T08:42:46;20.30;48.10
4453;DHT22;2239;48.152;11.584;2022-11-15T08:45:12;20.30;46.90
4453;DHT22;2239;48.152;11.584;2022-11-15T08:47:38;20.30;48.30
4453;DHT22;2239;48.152;11.584;2022-11-15T08:50:04;20.30;47.60
4453;DHT22;2239;48.152;11.584;2022-11-15T08:52:29;20.10;48.40
4453;DHT22;2239;48.152;11.584;2022-11-15T08:54:55;20.40;49.20
4453;DHT22;2239;48.152;11.584;2022-11-15T08:57:20;20.70;48.90
4453;DHT22;2239;48.152;11.584;2022-11-15T08:59:46;21.00;48.50
4453;DHT22;2239;48.152;11.584;2022-11-15T09:02:13;21.00;46.60
4453;DHT22;2239;48.152;11.584;2022-11-15T09:04:43;21.30;48.20
4453;DHT22;2239;48.152;11.584;2022-11-15T09:07:11;21.30;46.90
4453;DHT22;2239;48.152;11.584;2022-11-15T09:09:39;21.40;47.50
4453;DHT22;2239;48.152;11.584;2022-11-15T09:12:05;21.40;47.40
4453;DHT22;2239;48.152;11.584;2022-11-15T09:14:31;21.40;47.60
4453;DHT22;2239;48.152;11.584;2022-11-15T09:16:57;21.40;46.40
4453;DHT22;2239;48.152;11.584;2022-11-15T09:19:23;21.50;46.70
4453;DHT22;2239;48.152;11.584;2022-11-15T09:21:49;21.00;45.00
4453;DHT22;2239;48.152;11.584;2022-11-15T09:24:15;20.70;45.90
4453;DHT22;2239;48.152;11.584;2022-11-15T09:26:40;20.30;46.80
4453;DHT22;2239;48.152;11.584;2022-11-15T09:29:06;20.30;47.70
4453;DHT22;2239;48.152;11.584;2022-11-15T09:31:32;20.20;47.80
4453;DHT22;2239;48.152;11.584;2022-11-15T09:33:58;20.40;47.70
4453;DHT22;2239;48.152;11.584;2022-11-15T09:36:24;19.90;46.90
4453;DHT22;2239;48.152;11.584;2022-11-15T09:38:50;19.30;48.10
4453;DHT22;2239;48.152;11.584;2022-11-15T09:47:15;19.40;49.10
4453;DHT22;2239;48.152;11.584;2022-11-15T09:49:56;19.00;49.60
4453;DHT22;2239;48.152;11.584;2022-11-15T09:52:22;18.80;49.60
4453;DHT22;2239;48.152;11.584;2022-11-15T09:54:50;18.50;50.70
4453;DHT22;2239;48.152;11.584;2022-11-15T09:58:01;18.10;52.00
4453;DHT22;2239;48.152;11.584;2022-11-15T10:00:20;17.80;52.20
4453;DHT22;2239;48.152;11.584;2022-11-15T10:03:15;17.30;53.90
4453;DHT22;2239;48.152;11.584;2022-11-15T10:05:44;17.30;55.00
4453;DHT22;2239;48.152;11.584;2022-11-15T10:08:20;18.00;54.70
4453;DHT22;2239;48.152;11.584;2022-11-15T10:10:51;18.50;52.60
4453;DHT22;2239;48.152;11.584;2022-11-15T10:13:24;18.30;52.00
4453;DHT22;2239;48.152;11.584;2022-11-15T10:15:51;18.00;52.20
4453;DHT22;2239;48.152;11.584;2022-11-15T10:18:35;17.40;53.40
4453;DHT22;2239;48.152;11.584;2022-11-15T10:21:18;17.20;54.60
4453;DHT22;2239;48.152;11.584;2022-11-15T10:23:45;17.60;54.10
4453;DHT22;2239;48.152;11.584;2022-11-15T10:26:15;17.60;54.00
4453;DHT22;2239;48.152;11.584;2022-11-15T10:28:40;17.80;54.50
4453;DHT22;2239;48.152;11.584;2022-11-15T10:31:23;17.90;53.50
4453;DHT22;2239;48.152;11.584;2022-11-15T10:33:49;18.50;53.60
4453;DHT22;2239;48.152;11.584;2022-11-15T10:36:20;18.30;53.30
4453;DHT22;2239;48.152;11.584;2022-11-15T10:41:20;19.30;51.70
4453;DHT22;2239;48.152;11.584;2022-11-15T10:46:27;19.30;50.90
4453;DHT22;2239;48.152;11.584;2022-11-15T10:48:52;19.60;50.80
4453;DHT22;2239;48.152;11.584;2022-11-15T10:51:27;19.80;50.50
4453;DHT22;2239;48.152;11.584;2022-11-15T10:53:55;20.10;48.70
4453;DHT22;2239;48.152;11.584;2022-11-15T10:56:25;20.20;48.80
4453;DHT22;2239;48.152;11.584;2022-11-15T10:58:54;19.80;48.20
4453;DHT22;2239;48.152;11.584;2022-11-15T11:01:26;19.60;47.60
4453;DHT22;2239;48.152;11.584;2022-11-15T11:06:25;19.30;49.50
4453;DHT22;2239;48.152;11.584;2022-11-15T11:11:19;19.50;49.10
4453;DHT22;2239;48.152;11.584;2022-11-15T11:13:45;19.50;48.20
4453;DHT22;2239;48.152;11.584;2022-11-15T11:24:53;20.60;47.20
4453;DHT22;2239;48.152;11.584;2022-11-15T11:35:24;20.90;46.50
4453;DHT22;2239;48.152;11.584;2022-11-15T11:38:03;21.10;46.60
4453;DHT22;2239;48.152;11.584;2022-11-15T11:40:44;21.30;46.10
4453;DHT22;2239;48.152;11.584;2022-11-15T11:46:12;21.70;46.40
4453;DHT22;2239;48.152;11.584;2022-11-15T11:48:44;21.80;45.90
4453;DHT22;2239;48.152;11.584;2022-11-15T11:52:02;21.30;46.60
4453;DHT22;2239;48.152;11.584;2022-11-15T11:54:20;21.90;47.20
4453;DHT22;2239;48.152;11.584;2022-11-15T11:56:48;22.30;44.40
4453;DHT22;2239;48.152;11.584;2022-11-15T11:59:48;21.60;43.50
4453;DHT22;2239;48.152;11.584;2022-11-15T12:02:25;21.40;44.00
4453;DHT22;2239;48.152;11.584;2022-11-15T12:05:04;20.60;45.00
4453;DHT22;2239;48.152;11.584;2022-11-15T12:07:34;20.10;46.60
4453;DHT22;2239;48.152;11.584;2022-11-15T12:10:32;20.00;47.10
4453;DHT22;2239;48.152;11.584;2022-11-15T12:13:11;20.10;48.30
4453;DHT22;2239;48.152;11.584;2022-11-15T12:15:49;20.10;47.10
4453;DHT22;2239;48.152;11.584;2022-11-15T12:18:17;20.10;48.20
4453;DHT22;2239;48.152;11.584;2022-11-15T12:21:00;19.40;49.20
4453;DHT22;2239;48.152;11.584;2022-11-15T12:23:31;18.50;50.50
4453;DHT22;2239;48.152;11.584;2022-11-15T12:26:11;17.80;52.50
4453;DHT22;2239;48.152;11.584;2022-11-15T12:31:43;18.30;53.20
4453;DHT22;2239;48.152;11.584;2022-11-15T12:34:34;18.10;53.00
4453;DHT22;2239;48.152;11.584;2022-11-15T12:37:02;17.70;53.30
4453;DHT22;2239;48.152;11.584;2022-11-15T12:42:56;17.50;54.60
4453;DHT22;2239;48.152;11.584;2022-11-15T12:45:42;17.60;55.00
4453;DHT22;2239;48.152;11.584;2022-11-15T12:58:57;17.00;56.70
4453;DHT22;2239;48.152;11.584;2022-11-15T13:14:58;17.10;58.50
4453;DHT22;2239;48.152;11.584;2022-11-15T13:17:28;17.10;57.20
4453;DHT22;2239;48.152;11.584;2022-11-15T13:30:51;16.60;59.30
4453;DHT22;2239;48.152;11.584;2022-11-15T13:33:23;16.80;59.60
4453;DHT22;2239;48.152;11.584;2022-11-15T13:35:54;17.20;60.90
4453;DHT22;2239;48.152;11.584;2022-11-15T13:38:26;17.30;58.40
4453;DHT22;2239;48.152;11.584;2022-11-15T13:40:52;17.30;59.20
4453;DHT22;2239;48.152;11.584;2022-11-15T13:43:38;17.40;58.70
4453;DHT22;2239;48.152;11.584;2022-11-15T13:48:32;17.20;58.80
4453;DHT22;2239;48.152;11.584;2022-11-15T13:51:00;17.10;58.90
4453;DHT22;2239;48.152;11.584;2022-11-15T13:53:26;17.10;58.60
4453;DHT22;2239;48.152;11.584;2022-11-15T13:55:54;17.00;59.20
4453;DHT22;2239;48.152;11.584;2022-11-15T13:58:21;16.90;59.00
4453;DHT22;2239;48.152;11.584;2022-11-15T14:00:46;16.70;59.30
4453;DHT22;2239;48.152;11.584;2022-11-15T14:05:42;16.40;59.90
4453;DHT22;2239;48.152;11.584;2022-11-15T14:08:21;16.30;61.80
4453;DHT22;2239;48.152;11.584;2022-11-15T14:10:48;16.40;61.00
4453;DHT22;2239;48.152;11.584;2022-11-15T14:13:28;16.50;62.20
4453;DHT22;2239;48.152;11.584;2022-11-15T14:15:54;16.60;61.60
4453;DHT22;2239;48.152;11.584;2022-11-15T14:18:52;16.70;63.40
4453;DHT22;2239;48.152;11.584;2022-11-15T14:21:19;16.70;64.80
4453;DHT22;2239;48.152;11.584;2022-11-15T14:23:44;16.80;65.50
4453;DHT22;2239;48.152;11.584;2022-11-15T14:26:34;16.70;65.50
4453;DHT22;2239;48.152;11.584;2022-11-15T14:29:29;16.70;67.20
4453;DHT22;2239;48.152;11.584;2022-11-15T14:32:15;16.80;67.90
4453;DHT22;2239;48.152;11.584;2022-11-15T14:34:42;16.80;69.00
4453;DHT22;2239;48.152;11.584;2022-11-15T14:37:19;16.80;70.10
4453;DHT22;2239;48.152;11.584;2022-11-15T14:39:46;16.60;69.50
4453;DHT22;2239;48.152;11.584;2022-11-15T14:42:12;16.50;70.60
4453;DHT22;2239;48.152;11.584;2022-11-15T14:44:37;16.60;72.40
4453;DHT22;2239;48.152;11.584;2022-11-15T14:47:03;16.70;71.30
4453;DHT22;2239;48.152;11.584;2022-11-15T14:49:28;16.60;71.70
4453;DHT22;2239;48.152;11.584;2022-11-15T14:51:54;16.40;72.70
4453;DHT22;2239;48.152;11.584;2022-11-15T14:54:19;16.30;73.50
4453;DHT22;2239;48.152;11.584;2022-11-15T14:56:45;16.20;74.50
4453;DHT22;2239;48.152;11.584;2022-11-15T14:59:10;16.10;75.80
4453;DHT22;2239;48.152;11.584;2022-11-15T15:01:36;16.10;76.80
4453;DHT22;2239;48.152;11.584;2022-11-15T15:04:01;16.00;76.70
4453;DHT22;2239;48.152;11.584;2022-11-15T15:06:27;15.80;77.40
4453;DHT22;2239;48.152;11.584;2022-11-15T15:08:53;15.70;78.60
4453;DHT22;2239;48.152;11.584;2022-11-15T15:11:24;15.80;79.50
4453;DHT22;2239;48.152;11.584;2022-11-15T15:13:51;15.70;79.80
4453;DHT22;2239;48.152;11.584;2022-11-15T15:16:17;15.70;80.80
4453;DHT22;2239;48.152;11.584;2022-11-15T15:18:43;15.60;80.90
4453;DHT22;2239;48.152;11.584;2022-11-15T15:21:25;15.60;81.20
4453;DHT22;2239;48.152;11.584;2022-11-15T15:23:52;15.50;81.90
4453;DHT22;2239;48.152;11.584;2022-11-15T15:26:22;15.40;82.30
4453;DHT22;2239;48.152;11.584;2022-11-15T15:28:48;15.20;83.10
4453;DHT22;2239;48.152;11.584;2022-11-15T15:31:16;15.20;84.20
4453;DHT22;2239;48.152;11.584;2022-11-15T15:33:42;15.20;85.00
4453;DHT22;2239;48.152;11.584;2022-11-15T15:36:17;15.20;85.60
4453;DHT22;2239;48.152;11.584;2022-11-15T15:38:43;14.90;85.80
4453;DHT22;2239;48.152;11.584;2022-11-15T15:41:16;14.70;87.00
4453;DHT22;2239;48.152;11.584;2022-11-15T15:43:42;14.50;88.40
4453;DHT22;2239;48.152;11.584;2022-11-15T15:46:12;14.30;90.00
4453;DHT22;2239;48.152;11.584;2022-11-15T15:48:38;14.10;90.50
4453;DHT22;2239;48.152;11.584;2022-11-15T15:51:05;14.00;91.00
4453;DHT22;2239;48.152;11.584;2022-11-15T15:53:31;13.90;91.60
4453;DHT22;2239;48.152;11.584;2022-11-15T15:55:57;13.80;92.00
4453;DHT22;2239;48.152;11.584;2022-11-15T15:58:22;13.70;92.40
4453;DHT22;2239;48.152;11.584;2022-11-15T16:00:48;13.60;92.90
4453;DHT22;2239;48.152;11.584;2022-11-15T16:03:13;13.50;93.20
4453;DHT22;2239;48.152;11.584;2022-11-15T16:05:39;13.40;93.50
4453;DHT22;2239;48.152;11.584;2022-11-15T16:08:05;13.40;94.00
4453;DHT22;2239;48.152;11.584;2022-11-15T16:10:34;13.30;94.50
4453;DHT22;2239;48.152;11.584;2022-11-15T16:13:00;13.10;94.90
4453;DHT22;2239;48.152;11.584;2022-11-15T16:15:27;13.00;95.50
4453;DHT22;2239;48.152;11.584;2022-11-15T16:17:56;12.80;96.00
4453;DHT22;2239;48.152;11.584;2022-11-15T16:20:37;12.70;96.70
4453;DHT22;2239;48.152;11.584;2022-11-15T16:23:06;12.60;97.40
4453;DHT22;2239;48.152;11.584;2022-11-15T16:25:48;12.40;97.90
4453;DHT22;2239;48.152;11.584;2022-11-15T16:28:24;12.40;98.50
4453;DHT22;2239;48.152;11.584;2022-11-15T16:31:17;12.40;98.70
4453;DHT22;2239;48.152;11.584;2022-11-15T16:33:45;12.40;99.00
4453;DHT22;2239;48.152;11.584;2022-11-15T16:38:45;12.30;99.50
4453;DHT22;2239;48.152;11.584;2022-11-15T16:41:11;12.20;99.90
4453;DHT22;2239;48.152;11.584;2022-11-15T16:43:37;12.10;99.90
4453;DHT22;2239;48.152;11.584;2022-11-15T16:46:08;11.90;99.90
4453;DHT22;2239;48.152;11.584;2022-11-15T16:48:37;11.80;99.90
4453;DHT22;2239;48.152;11.584;2022-11-15T16:51:05;11.80;99.90
4453;DHT22;2239;48.152;11.584;2022-11-15T16:53:30;11.80;99.90
4453;DHT22;2239;48.152;11.584;2022-11-15T16:55:56;11.80;99.90
4453;DHT22;2239;48.152;11.584;2022-11-15T16:58:22;11.70;99.90
4453;DHT22;2239;48.152;11.584;2022-11-15T17:00:55;11.70;99.90
4453;DHT22;2239;48.152;11.584;2022-11-15T17:03:22;11.70;99.90
4453;DHT22;2239;48.152;11.584;2022-11-15T17:05:48;11.70;99.90
4453;DHT22;2239;48.152;11.584;2022-11-15T17:08:14;11.60;99.90
4453;DHT22;2239;48.152;11.584;2022-11-15T17:10:39;11.60;99.90
4453;DHT22;2239;48.152;11.584;2022-11-15T17:13:12;11.50;99.90
4453;DHT22;2239;48.152;11.584;2022-11-15T17:15:38;11.40;99.90
4453;DHT22;2239;48.152;11.584;2022-11-15T17:18:04;11.30;99.90
4453;DHT22;2239;48.152;11.584;2022-11-15T17:20:30;11.30;99.90
4453;DHT22;2239;48.152;11.584;2022-11-15T17:22:56;11.30;99.90
4453;DHT22;2239;48.152;11.584;2022-11-15T17:25:22;11.30;99.90
4453;DHT22;2239;48.152;11.584;2022-11-15T17:27:47;11.30;99.90
4453;DHT22;2239;48.152;11.584;2022-11-15T17:30:14;11.20;99.90
4453;DHT22;2239;48.152;11.584;2022-11-15T17:32:40;11.20;99.90
4453;DHT22;2239;48.152;11.584;2022-11-15T17:35:07;11.30;99.90
4453;DHT22;2239;48.152;11.584;2022-11-15T17:37:33;11.30;99.90
4453;DHT22;2239;48.152;11.584;2022-11-15T17:39:59;11.30;99.90
4453;DHT22;2239;48.152;11.584;2022-11-15T17:42:25;11.30;99.90
4453;DHT22;2239;48.152;11.584;2022-11-15T17:44:50;11.30;99.90
4453;DHT22;2239;48.152;11.584;2022-11-15T17:47:16;11.30;99.90
4453;DHT22;2239;48.152;11.584;2022-11-15T17:49:41;11.20;99.90
4453;DHT22;2239;48.152;11.584;2022-11-15T17:52:07;11.20;99.90
4453;DHT22;2239;48.152;11.584;2022-11-15T17:54:33;11.20;99.90
4453;DHT22;2239;48.152;11.584;2022-11-15T17:56:58;11.30;99.90
4453;DHT22;2239;48.152;11.584;2022-11-15T17:59:24;11.20;99.90
4453;DHT22;2239;48.152;11.584;2022-11-15T18:01:50;11.20;99.90